Time;durP1;ratioP1;P1;durP2;ratioP2;P2;SDS_P1;SDS_P2;PMS_P1;PMS_P2;Temp;Humidity;BMP_temperature;BMP_pressure;BME280_temperature;BME280_humidity;BME280_pressure;Samples;Min_cycle;Max_cycle;Signal;HPM_P1;HPM_P2
2023/03/07 00:01:41;;;;;;;;;82.33;61.33;;;;;2.29;100.00;98558.19;6311018;20;3637717;-61
2023/03/07 00:04:12;;;;;;;;;81.67;61.33;;;;;2.22;100.00;98555.91;6309379;20;3654477;-61
2023/03/07 00:06:42;;;;;;;;;82.67;59.00;;;;;2.25;100.00;98559.25;6314297;20;3656509;-61
2023/03/07 00:09:11;;;;;;;;;81.67;63.67;;;;;2.22;100.00;98562.06;6317494;20;3622328;-61
2023/03/07 00:11:41;;;;;;;;;89.00;62.00;;;;;1.93;100.00;98561.56;6316920;20;3663846;-61
2023/03/07 00:14:10;;;;;;;;;85.67;60.67;;;;;1.96;100.00;98566.72;6285267;20;3660671;-58
2023/03/07 00:16:40;;;;;;;;;83.67;64.00;;;;;2.06;100.00;98559.25;6317829;20;2882884;-57
2023/03/07 00:19:10;;;;;;;;;93.00;69.00;;;;;1.95;100.00;98559.72;6320030;20;3638819;-57
2023/03/07 00:21:39;;;;;;;;;94.67;71.67;;;;;2.04;100.00;98561.09;6317361;20;3669426;-58
2023/03/07 00:24:10;;;;;;;;;96.67;72.00;;;;;1.81;100.00;98561.25;6282177;20;3665868;-57
2023/03/07 00:26:39;;;;;;;;;93.67;72.00;;;;;2.05;100.00;98560.16;6318886;20;3667989;-55
2023/03/07 00:29:10;;;;;;;;;87.67;65.00;;;;;2.00;100.00;98551.56;6283272;20;3638793;-56
2023/03/07 00:31:39;;;;;;;;;82.00;61.67;;;;;1.82;100.00;98547.97;6317653;20;2878910;-55
2023/03/07 00:34:09;;;;;;;;;82.00;60.33;;;;;2.02;100.00;98554.16;6318806;20;3655494;-57
2023/03/07 00:36:38;;;;;;;;;83.00;63.67;;;;;1.74;100.00;98547.47;6318303;20;3639829;-53
2023/03/07 00:39:08;;;;;;;;;84.67;64.33;;;;;1.64;100.00;98552.28;6317418;20;3631588;-57
2023/03/07 00:41:38;;;;;;;;;86.67;63.00;;;;;1.88;100.00;98550.34;6317396;20;3668023;-55
2023/03/07 00:44:07;;;;;;;;;81.00;62.33;;;;;1.62;100.00;98545.34;6284991;20;2899323;-56
2023/03/07 00:46:37;;;;;;;;;80.00;59.33;;;;;1.74;100.00;98548.31;6318692;20;3646135;-57
2023/03/07 00:49:07;;;;;;;;;90.00;67.33;;;;;1.53;100.00;98550.09;6318125;20;3639876;-57
2023/03/07 00:51:36;;;;;;;;;87.33;61.33;;;;;1.80;100.00;98554.25;6317136;20;3654481;-57
2023/03/07 00:54:06;;;;;;;;;92.33;71.33;;;;;1.73;100.00;98545.72;6317012;20;3658904;-62
2023/03/07 00:56:36;;;;;;;;;92.00;68.00;;;;;1.59;100.00;98540.19;6282886;20;3638829;-61
2023/03/07 00:59:06;;;;;;;;;94.67;75.00;;;;;1.64;100.00;98538.19;6314790;20;3656531;-62
2023/03/07 01:01:37;;;;;;;;;92.00;67.00;;;;;1.72;100.00;98542.22;6314962;20;3641951;-61
2023/03/07 01:04:07;;;;;;;;;89.33;67.33;;;;;1.97;100.00;98546.41;6318236;20;3647267;-61
2023/03/07 01:06:36;;;;;;;;;93.00;69.00;;;;;1.68;100.00;98534.47;6313760;20;3651309;-58
2023/03/07 01:09:07;;;;;;;;;90.00;66.67;;;;;1.83;100.00;98536.44;6318268;20;3649325;-58
2023/03/07 01:11:37;;;;;;;;;89.67;64.67;;;;;1.69;100.00;98534.41;6312689;20;3666927;-58
2023/03/07 01:14:09;;;;;;;;;96.33;68.67;;;;;1.86;100.00;98538.09;6316085;20;3670108;-56
2023/03/07 01:16:39;;;;;;;;;94.00;72.33;;;;;1.88;100.00;98542.41;6313779;20;3664840;-56
2023/03/07 01:19:12;;;;;;;;;95.00;72.33;;;;;1.79;100.00;98526.06;6318126;20;3658639;-56
2023/03/07 01:21:43;;;;;;;;;94.33;76.00;;;;;1.82;100.00;98526.81;6314548;20;3655511;-58
2023/03/07 01:24:15;;;;;;;;;91.67;69.00;;;;;1.65;100.00;98529.31;6316158;20;3654429;-58
2023/03/07 01:26:44;;;;;;;;;96.33;74.00;;;;;1.31;100.00;98528.13;6317517;20;3672118;-57
2023/03/07 01:29:14;;;;;;;;;93.33;67.67;;;;;1.43;100.00;98524.97;6318237;20;3657640;-56
2023/03/07 01:31:43;;;;;;;;;72.33;59.00;;;;;1.53;100.00;98525.44;6313665;20;2877432;-55
2023/03/07 01:34:13;;;;;;;;;85.33;65.00;;;;;1.47;100.00;98518.59;6318745;20;3645121;-56
2023/03/07 01:36:43;;;;;;;;;84.67;63.67;;;;;1.19;100.00;98518.09;6316358;20;3658720;-56
2023/03/07 01:39:15;;;;;;;;;82.33;64.67;;;;;1.36;100.00;98522.66;6315216;20;3628393;-57
2023/03/07 01:41:46;;;;;;;;;84.00;64.00;;;;;1.36;100.00;98523.50;6312775;20;3659761;-58
2023/03/07 01:44:19;;;;;;;;;84.00;64.67;;;;;1.25;100.00;98518.69;6318013;20;3649289;-56
2023/03/07 01:46:55;;;;;;;;;80.33;60.33;;;;;1.20;100.00;98512.72;6316835;20;2887887;-54
2023/03/07 01:49:41;;;;;;;;;91.67;68.00;;;;;1.29;100.00;98514.13;6316430;20;3647403;-55
2023/03/07 01:52:36;;;;;;;;;78.67;58.00;;;;;1.30;100.00;98515.84;6317153;20;2895192;-57
2023/03/07 01:55:17;;;;;;;;;79.67;58.67;;;;;1.30;100.00;98497.34;6316642;20;3647177;-56
2023/03/07 01:57:50;;;;;;;;;84.33;61.33;;;;;1.28;100.00;98501.84;6313482;20;3651394;-55
2023/03/07 02:00:28;;;;;;;;;80.67;57.00;;;;;1.29;100.00;98500.91;6312952;20;3655900;-55
2023/03/07 02:03:47;;;;;;;;;81.67;59.33;;;;;1.20;100.00;98510.09;6314135;20;3644059;-55
2023/03/07 02:06:18;;;;;;;;;78.67;60.00;;;;;1.31;100.00;98514.91;6308558;20;3632672;-54
2023/03/07 02:08:49;;;;;;;;;84.33;61.00;;;;;1.21;100.00;98508.31;6314271;20;3657666;-56
2023/03/07 02:11:18;;;;;;;;;73.00;57.50;;;;;1.17;100.00;98509.38;6312931;20;2868440;-55
2023/03/07 02:13:47;;;;;;;;;82.33;59.67;;;;;1.12;100.00;98506.06;6284038;20;3647222;-55
2023/03/07 02:16:17;;;;;;;;;84.33;63.00;;;;;1.32;100.00;98511.38;6316438;20;3649256;-57
2023/03/07 02:18:49;;;;;;;;;81.67;61.33;;;;;1.26;100.00;98508.97;6313963;20;2888904;-57
2023/03/07 02:21:38;;;;;;;;;84.33;64.00;;;;;1.29;100.00;98506.19;6315860;20;3650266;-51
2023/03/07 02:24:31;;;;;;;;;81.00;59.67;;;;;1.53;100.00;98512.22;6313172;20;3647169;-55
2023/03/07 02:27:00;;;;;;;;;83.00;63.33;;;;;1.41;100.00;98510.94;6315883;20;3628569;-57
2023/03/07 02:29:30;;;;;;;;;75.67;57.33;;;;;1.47;100.00;98505.38;6313400;20;3638805;-56
2023/03/07 02:31:59;;;;;;;;;77.00;56.33;;;;;1.45;100.00;98504.63;6314981;20;3649224;-57
2023/03/07 02:34:31;;;;;;;;;78.00;60.00;;;;;1.64;100.00;98496.72;6315019;20;2876509;-54
2023/03/07 02:37:32;;;;;;;;;77.00;55.33;;;;;1.30;100.00;98497.34;6316688;20;2891995;-57
2023/03/07 02:40:07;;;;;;;;;70.33;55.00;;;;;1.31;100.00;98499.91;6312207;20;2877444;-57
2023/03/07 02:42:41;;;;;;;;;64.50;49.50;;;;;1.38;100.00;98489.09;6312359;20;2863826;-54
2023/03/07 02:45:16;;;;;;;;;68.00;54.00;;;;;1.50;100.00;98488.53;6284492;20;2870099;-57
2023/03/07 02:47:46;;;;;;;;;69.33;52.33;;;;;1.30;100.00;98487.63;6280130;20;3650255;-57
2023/03/07 02:50:16;;;;;;;;;66.00;49.50;;;;;1.45;100.00;98491.41;6315102;20;2871101;-58
2023/03/07 02:52:44;;;;;;;;;66.50;51.00;;;;;1.39;100.00;98486.34;6281866;20;2873188;-57
2023/03/07 02:55:15;;;;;;;;;65.33;51.00;;;;;1.70;100.00;98483.22;6284009;20;2880543;-56
2023/03/07 02:57:43;;;;;;;;;60.50;51.00;;;;;1.42;100.00;98480.97;6313797;20;2858614;-57
2023/03/07 03:00:13;;;;;;;;;65.00;51.00;;;;;1.39;100.00;98480.22;6285036;20;2871141;-56
2023/03/07 03:02:42;;;;;;;;;68.50;54.00;;;;;1.62;100.00;98481.84;6282944;20;2854461;-57
2023/03/07 03:05:11;;;;;;;;;69.00;55.00;;;;;1.65;100.00;98492.28;6278910;20;2500337;-57
2023/03/07 03:07:40;;;;;;;;;72.67;56.00;;;;;1.50;100.00;98492.06;6282211;20;2869124;-56
2023/03/07 03:10:10;;;;;;;;;74.33;56.33;;;;;1.56;100.00;98492.72;6313377;20;2885784;-53
2023/03/07 03:12:40;;;;;;;;;72.33;57.00;;;;;1.47;100.00;98480.72;6314085;20;2883828;-56
2023/03/07 03:15:11;;;;;;;;;71.67;54.67;;;;;1.62;100.00;98482.69;6314339;20;2878406;-57
2023/03/07 03:17:40;;;;;;;;;72.00;55.00;;;;;1.57;100.00;98486.47;6312045;20;2868397;-59
2023/03/07 03:20:11;;;;;;;;;66.67;53.00;;;;;1.63;100.00;98494.13;6279504;20;2885801;-56
2023/03/07 03:22:41;;;;;;;;;67.00;54.00;;;;;1.56;100.00;98492.72;6312648;20;2867968;-53
2023/03/07 03:25:13;;;;;;;;;73.00;53.00;;;;;1.53;100.00;98493.72;6277511;20;2879460;-57
2023/03/07 03:27:43;;;;;;;;;70.33;54.67;;;;;1.60;100.00;98486.34;6315138;20;2881640;-56
2023/03/07 03:30:14;;;;;;;;;71.00;55.67;;;;;1.60;100.00;98487.19;6313094;20;3639903;-53
2023/03/07 03:32:43;;;;;;;;;93.67;66.33;;;;;1.48;100.00;98488.59;6311895;20;3653373;-55
2023/03/07 03:35:14;;;;;;;;;95.67;71.33;;;;;1.63;100.00;98487.06;6314588;20;3660771;-56
2023/03/07 03:37:43;;;;;;;;;89.67;63.33;;;;;1.15;100.00;98485.63;6279857;20;3637937;-53
2023/03/07 03:40:16;;;;;;;;;111.50;90.00;;;;;1.25;100.00;98488.75;6313445;20;3702391;-57
2023/03/07 03:42:46;;;;;;;;;82.33;61.67;;;;;1.09;100.00;98494.69;6281638;20;3643997;-55
2023/03/07 03:45:15;;;;;;;;;73.33;57.67;;;;;1.11;100.00;98492.00;6319933;20;2878473;-56
2023/03/07 03:47:47;;;;;;;;;85.67;63.67;;;;;1.04;100.00;98485.25;6317573;20;3665867;-56
2023/03/07 03:50:17;;;;;;;;;90.00;63.00;;;;;1.15;100.00;98482.13;6319101;20;3653423;-56
2023/03/07 03:52:46;;;;;;;;;84.67;60.33;;;;;1.09;100.00;98485.91;6317551;20;3664941;-56
2023/03/07 03:55:16;;;;;;;;;88.33;67.00;;;;;1.13;100.00;98486.63;6319986;20;3641859;-57
2023/03/07 03:57:46;;;;;;;;;84.67;60.00;;;;;1.22;100.00;98488.88;6318001;20;3662746;-56
2023/03/07 04:00:18;;;;;;;;;83.67;63.00;;;;;1.58;100.00;98477.59;6318969;20;3657537;-57
2023/03/07 04:02:49;;;;;;;;;81.67;58.33;;;;;1.78;100.00;98482.03;6319221;20;3641538;-57
2023/03/07 04:05:19;;;;;;;;;81.67;62.33;;;;;1.97;100.00;98493.47;6318160;20;3635829;-57
2023/03/07 04:07:49;;;;;;;;;77.67;61.33;;;;;1.93;100.00;98491.91;6319509;20;2874307;-55
2023/03/07 04:10:20;;;;;;;;;79.67;60.67;;;;;1.77;100.00;98493.53;6317164;20;2877408;-55
2023/03/07 04:12:50;;;;;;;;;75.67;58.67;;;;;1.84;100.00;98492.31;6318266;20;3628450;-55
2023/03/07 04:15:19;;;;;;;;;91.00;68.33;;;;;1.71;100.00;98492.00;6317022;20;3653420;-57
2023/03/07 04:17:49;;;;;;;;;92.67;67.00;;;;;1.67;100.00;98493.09;6318924;20;3659678;-57
2023/03/07 04:20:20;;;;;;;;;99.00;75.67;;;;;1.61;100.00;98491.56;6317109;20;3673217;-57
2023/03/07 04:22:50;;;;;;;;;99.67;81.00;;;;;1.69;100.00;98493.88;6289156;20;3684714;-57
2023/03/07 04:25:20;;;;;;;;;96.00;73.00;;;;;1.86;100.00;98495.75;6282142;20;3668526;-56
2023/03/07 04:27:49;;;;;;;;;95.33;72.33;;;;;1.93;100.00;98494.56;6316887;20;3663943;-55
2023/03/07 04:30:18;;;;;;;;;71.50;56.00;;;;;1.83;100.00;98483.53;6318726;20;2869080;-57
2023/03/07 04:32:48;;;;;;;;;75.33;58.00;;;;;1.47;100.00;98492.16;6285090;20;2886880;-55
2023/03/07 04:35:17;;;;;;;;;72.67;53.00;;;;;1.51;100.00;98490.25;6318969;20;2889984;-57
2023/03/07 04:37:49;;;;;;;;;82.00;62.00;;;;;1.37;100.00;98503.22;6317690;20;3649316;-57
2023/03/07 04:40:19;;;;;;;;;88.67;65.67;;;;;1.22;100.00;98495.03;6318973;20;3637808;-54
2023/03/07 04:42:48;;;;;;;;;90.00;65.33;;;;;1.54;100.00;98500.69;6317829;20;3655504;-56
2023/03/07 04:45:18;;;;;;;;;93.67;69.00;;;;;1.52;100.00;98506.03;6318924;20;3661776;-55
2023/03/07 04:47:47;;;;;;;;;94.67;69.67;;;;;1.49;100.00;98507.97;6284517;20;3663835;-57
2023/03/07 04:50:19;;;;;;;;;96.67;69.00;;;;;1.46;100.00;98502.81;6318063;20;3660725;-56
2023/03/07 04:52:49;;;;;;;;;83.67;62.33;;;;;1.39;100.00;98527.81;6282667;20;3644028;-55
2023/03/07 04:55:19;;;;;;;;;101.00;77.33;;;;;1.29;100.00;98516.75;6318482;20;3678443;-57
2023/03/07 04:57:50;;;;;;;;;95.67;69.33;;;;;1.15;100.00;98511.22;6286384;20;3662879;-56
2023/03/07 05:00:20;;;;;;;;;90.67;70.00;;;;;1.19;100.00;98515.47;6316137;20;3650319;-52
2023/03/07 05:02:50;;;;;;;;;91.00;67.67;;;;;1.28;100.00;98515.91;6318418;20;3639882;-56
2023/03/07 05:05:19;;;;;;;;;87.67;68.00;;;;;1.48;100.00;98525.63;6316941;20;3637781;-57
2023/03/07 05:07:49;;;;;;;;;84.33;64.33;;;;;1.23;100.00;98525.81;6317477;20;3627405;-56
2023/03/07 05:10:19;;;;;;;;;81.00;60.33;;;;;1.14;100.00;98528.00;6316522;20;2900439;-54
2023/03/07 05:12:47;;;;;;;;;77.50;61.00;;;;;1.29;100.00;98528.22;6317500;20;2867033;-56
2023/03/07 05:15:17;;;;;;;;;72.33;56.67;;;;;1.31;100.00;98530.78;6284592;20;2877404;-57
2023/03/07 05:17:47;;;;;;;;;84.33;61.33;;;;;1.13;100.00;98531.56;6317023;20;2889900;-57
2023/03/07 05:20:17;;;;;;;;;93.67;70.33;;;;;1.33;100.00;98538.66;6315496;20;3651261;-57
2023/03/07 05:22:47;;;;;;;;;91.67;68.00;;;;;1.38;100.00;98536.69;6318417;20;3646244;-54
2023/03/07 05:25:17;;;;;;;;;89.67;66.67;;;;;1.26;100.00;98541.56;6316193;20;3646113;-57
2023/03/07 05:27:47;;;;;;;;;81.67;63.33;;;;;1.38;100.00;98541.97;6318159;20;3635714;-57
2023/03/07 05:30:17;;;;;;;;;89.33;66.00;;;;;1.08;100.00;98540.56;6314415;20;3626486;-57
2023/03/07 05:32:47;;;;;;;;;92.33;65.33;;;;;1.31;100.00;98533.44;6315490;20;3665917;-56
2023/03/07 05:35:17;;;;;;;;;90.33;68.33;;;;;0.98;100.00;98533.94;6317192;20;3653384;-56
2023/03/07 05:37:46;;;;;;;;;96.67;72.33;;;;;1.27;100.00;98538.00;6315469;20;3657559;-56
2023/03/07 05:40:17;;;;;;;;;95.67;69.00;;;;;1.25;100.00;98528.41;6315770;20;3657525;-55
2023/03/07 05:42:47;;;;;;;;;100.00;76.33;;;;;1.34;100.00;98532.44;6315971;20;3683076;-55
2023/03/07 05:45:17;;;;;;;;;89.00;69.00;;;;;1.27;100.00;98534.50;6285569;20;3629464;-57
2023/03/07 05:47:47;;;;;;;;;76.67;59.67;;;;;1.51;100.00;98538.72;6315476;20;2881523;-55
2023/03/07 05:50:18;;;;;;;;;91.67;63.00;;;;;1.34;100.00;98535.94;6315616;20;3667483;-55
2023/03/07 05:52:48;;;;;;;;;86.67;60.33;;;;;1.37;100.00;98542.88;6283212;20;3660809;-57
2023/03/07 05:55:18;;;;;;;;;74.67;57.00;;;;;1.46;100.00;98546.00;6317680;20;2893143;-55
2023/03/07 05:57:48;;;;;;;;;87.33;64.33;;;;;1.18;100.00;98532.22;6315908;20;2882737;-57
2023/03/07 06:00:19;;;;;;;;;86.00;66.33;;;;;1.38;100.00;98534.88;6314211;20;3637880;-57
2023/03/07 06:02:49;;;;;;;;;86.67;65.00;;;;;1.62;100.00;98545.34;6315123;20;3645098;-55
2023/03/07 06:05:19;;;;;;;;;82.00;60.33;;;;;1.62;100.00;98548.84;6314572;20;3656516;-54
2023/03/07 06:07:52;;;;;;;;;89.00;67.00;;;;;1.70;100.00;98548.50;6315807;20;3645157;-56
2023/03/07 06:10:22;;;;;;;;;94.00;68.00;;;;;2.15;100.00;98545.56;6314395;20;3663806;-53
2023/03/07 06:12:53;;;;;;;;;88.00;67.67;;;;;2.12;100.00;98556.31;6314977;20;2885750;-54
2023/03/07 06:15:23;;;;;;;;;93.00;72.33;;;;;2.20;100.00;98558.59;6316979;20;3661809;-56
2023/03/07 06:17:53;;;;;;;;;103.67;80.67;;;;;2.30;100.00;98551.97;6282519;20;3730456;-56
2023/03/07 06:20:23;;;;;;;;;87.00;64.00;;;;;2.52;100.00;98554.47;6283494;20;3639877;-56
2023/03/07 06:22:52;;;;;;;;;101.67;90.33;;;;;2.45;100.00;98568.06;6315935;20;3676999;-56
2023/03/07 06:25:22;;;;;;;;;115.00;96.33;;;;;2.54;100.00;98557.91;6283239;20;3684807;-56
2023/03/07 06:27:58;;;;;;;;;110.33;95.67;;;;;2.73;100.00;98563.19;6284220;20;3669022;-57
2023/03/07 06:30:28;;;;;;;;;98.00;77.00;;;;;3.22;100.00;98566.09;6280536;20;3681562;-57
2023/03/07 06:32:58;;;;;;;;;89.33;66.67;;;;;2.99;100.00;98571.69;6284777;20;3651345;-57
2023/03/07 06:35:27;;;;;;;;;90.33;70.33;;;;;3.10;100.00;98564.03;6314486;20;3658611;-56
2023/03/07 06:37:57;;;;;;;;;90.00;66.67;;;;;3.37;100.00;98576.88;6282013;20;3661747;-57
2023/03/07 06:40:27;;;;;;;;;90.33;69.00;;;;;3.26;100.00;98582.72;6304852;20;3662776;-57
2023/03/07 06:42:56;;;;;;;;;88.67;64.00;;;;;3.35;100.00;98586.72;6314088;20;3638787;-57
2023/03/07 06:45:26;;;;;;;;;87.67;66.00;;;;;3.50;100.00;98588.56;6314198;20;3658703;-56
2023/03/07 06:47:56;;;;;;;;;102.67;86.33;;;;;3.62;100.00;98581.81;6313462;20;3674224;-57
2023/03/07 06:50:27;;;;;;;;;119.00;100.00;;;;;3.63;99.79;98584.38;6281345;20;3703376;-56
2023/03/07 06:53:02;;;;;;;;;137.50;117.00;;;;;3.52;100.00;98584.06;6274152;20;1955650;-57
2023/03/07 06:55:30;;;;;;;;;120.50;103.50;;;;;3.65;99.95;98590.47;6276647;20;1954590;-56
2023/03/07 06:57:59;;;;;;;;;97.00;83.67;;;;;3.63;99.72;98589.66;6281395;20;3671114;-55
2023/03/07 07:00:30;;;;;;;;;122.75;103.50;;;;;3.72;99.94;98596.31;6280985;20;3699247;-54
2023/03/07 07:03:00;;;;;;;;;99.00;83.67;;;;;3.98;99.33;98592.31;6277529;20;3687843;-57
2023/03/07 07:05:30;;;;;;;;;101.67;82.33;;;;;3.89;99.05;98600.75;6283177;20;3699241;-55
2023/03/07 07:07:59;;;;;;;;;98.67;79.33;;;;;3.70;100.00;98591.09;6280868;20;3687767;-56
2023/03/07 07:10:29;;;;;;;;;96.00;79.67;;;;;4.02;98.93;98588.56;6282037;20;3678472;-54
2023/03/07 07:12:59;;;;;;;;;90.00;72.00;;;;;4.03;98.66;98589.41;6280146;20;3654536;-55
2023/03/07 07:15:29;;;;;;;;;90.67;74.33;;;;;4.32;97.79;98579.91;6277722;20;3692006;-55
2023/03/07 07:17:59;;;;;;;;;92.33;75.33;;;;;4.41;97.20;98587.38;6281820;20;3664236;-56
2023/03/07 07:20:29;;;;;;;;;93.00;73.33;;;;;4.31;97.71;98586.16;6279512;20;3668009;-56
2023/03/07 07:22:58;;;;;;;;;89.33;66.67;;;;;4.71;97.38;98590.13;6279015;20;3675331;-57
2023/03/07 07:25:28;;;;;;;;;92.00;65.33;;;;;4.75;96.73;98593.50;6281980;20;3670085;-56
2023/03/07 07:27:57;;;;;;;;;91.67;70.00;;;;;4.98;94.61;98592.22;6283304;20;3669054;-56
2023/03/07 07:30:27;;;;;;;;;90.00;70.00;;;;;5.05;94.19;98597.13;6278461;20;3664936;-60
2023/03/07 07:32:57;;;;;;;;;90.33;73.00;;;;;5.48;93.53;98597.28;6280375;20;3674207;-63
2023/03/07 07:35:28;;;;;;;;;90.00;73.33;;;;;6.01;91.71;98605.75;6278839;20;3663822;-60
2023/03/07 07:37:57;;;;;;;;;88.67;70.33;;;;;5.86;91.20;98598.63;6281850;20;3672168;-59
2023/03/07 07:40:27;;;;;;;;;92.00;69.00;;;;;5.88;90.27;98602.94;6276401;20;3667957;-59
2023/03/07 07:42:57;;;;;;;;;93.00;73.67;;;;;5.91;90.78;98597.41;6280229;20;3686704;-58
2023/03/07 07:45:26;;;;;;;;;98.33;81.33;;;;;5.97;90.58;98598.03;6282590;20;3680477;-59
2023/03/07 07:47:56;;;;;;;;;92.67;67.67;;;;;6.19;90.56;98601.13;6280710;20;3682610;-59
2023/03/07 07:50:26;;;;;;;;;85.67;64.00;;;;;6.22;89.20;98598.25;6281562;20;3653533;-59
2023/03/07 07:52:55;;;;;;;;;84.67;63.33;;;;;6.34;88.92;98602.81;6280128;20;3636722;-60
2023/03/07 07:55:25;;;;;;;;;88.00;67.33;;;;;6.46;88.85;98603.03;6312218;20;3656509;-60
2023/03/07 07:57:54;;;;;;;;;82.00;63.33;;;;;6.55;89.07;98605.09;6280949;20;3633577;-60
2023/03/07 08:00:24;;;;;;;;;81.67;60.33;;;;;6.51;89.06;98607.13;6311764;20;3649213;-60
2023/03/07 08:02:54;;;;;;;;;84.33;65.00;;;;;6.91;86.56;98614.41;6280530;20;3645217;-60
2023/03/07 08:05:24;;;;;;;;;80.00;60.33;;;;;6.69;87.04;98609.56;6307698;20;3627346;-61
2023/03/07 08:07:55;;;;;;;;;77.00;59.33;;;;;6.66;87.97;98605.31;6312347;20;3627336;-61
2023/03/07 08:10:25;;;;;;;;;76.00;59.33;;;;;6.67;87.12;98609.69;6310078;20;3628413;-61
2023/03/07 08:12:54;;;;;;;;;75.67;57.33;;;;;6.80;87.74;98613.28;6310690;20;3628439;-61
2023/03/07 08:15:24;;;;;;;;;75.67;57.67;;;;;6.89;86.78;98610.97;6312891;20;3628491;-60
2023/03/07 08:17:54;;;;;;;;;78.67;60.33;;;;;7.28;85.50;98612.88;6312890;20;3626293;-59
2023/03/07 08:20:24;;;;;;;;;80.33;60.00;;;;;7.19;87.07;98608.16;6309638;20;3647155;-59
2023/03/07 08:22:54;;;;;;;;;80.33;58.67;;;;;7.64;85.74;98601.59;6278833;20;3662938;-59
2023/03/07 08:25:24;;;;;;;;;80.67;61.00;;;;;7.50;86.82;98612.31;6279056;20;3644204;-60
2023/03/07 08:27:56;;;;;;;;;75.00;59.33;;;;;7.45;86.44;98606.41;6310342;20;3619058;-60
2023/03/07 08:30:29;;;;;;;;;73.00;57.67;;;;;7.60;85.63;98607.22;6315282;20;3628410;-60
2023/03/07 08:32:59;;;;;;;;;74.00;55.00;;;;;7.77;83.77;98608.78;6315439;20;3637782;-60
2023/03/07 08:35:29;;;;;;;;;70.33;55.00;;;;;7.76;84.29;98607.06;6316520;20;3637802;-60
2023/03/07 08:37:59;;;;;;;;;71.67;56.00;;;;;8.60;81.26;98603.94;6315859;20;3629511;-60
2023/03/07 08:40:30;;;;;;;;;64.33;49.33;;;;;8.20;78.35;98612.03;6316342;20;3648242;-59
2023/03/07 08:43:00;;;;;;;;;73.67;56.00;;;;;8.21;79.58;98615.56;6316936;20;3638817;-59
2023/03/07 08:45:29;;;;;;;;;116.33;101.00;;;;;8.33;79.00;98620.06;6319236;20;3705496;-59
2023/03/07 08:47:59;;;;;;;;;70.00;50.67;;;;;8.28;77.32;98616.88;6283609;20;3645077;-59
2023/03/07 08:50:28;;;;;;;;;70.33;51.67;;;;;8.27;76.69;98631.22;6317036;20;3630551;-59
2023/03/07 08:52:58;;;;;;;;;70.67;56.00;;;;;7.99;77.36;98625.06;6315888;20;3624254;-59
2023/03/07 08:55:27;;;;;;;;;67.33;51.33;;;;;8.14;74.64;98629.38;6318894;20;3626284;-60
2023/03/07 08:57:55;;;;;;;;;66.00;52.00;;;;;8.40;73.87;98618.72;6283705;20;2875212;-60
2023/03/07 09:00:25;;;;;;;;;71.00;49.00;;;;;8.07;73.31;98625.41;6279528;20;3627335;-60
2023/03/07 09:02:57;;;;;;;;;89.67;71.00;;;;;7.78;75.02;98629.19;6316816;20;3680469;-59
2023/03/07 09:05:28;;;;;;;;;58.67;46.00;;;;;7.81;74.15;98620.97;6281774;20;2870122;-59
2023/03/07 09:07:58;;;;;;;;;44.00;38.00;;;;;8.21;73.52;98628.94;6314852;20;2852574;-60
2023/03/07 09:10:27;;;;;;;;;65.67;51.00;;;;;7.80;73.24;98624.59;6284189;20;3626308;-60
2023/03/07 09:12:57;;;;;;;;;59.33;48.33;;;;;8.59;71.47;98622.78;6317906;20;3599217;-59
2023/03/07 09:15:27;;;;;;;;;60.00;47.00;;;;;8.64;70.00;98623.31;6313313;20;3631524;-60
2023/03/07 09:17:55;;;;;;;;;54.50;42.00;;;;;8.59;70.22;98628.13;6317096;20;2856493;-60
2023/03/07 09:20:25;;;;;;;;;58.67;43.00;;;;;8.79;67.54;98625.75;6283734;20;3622232;-60
2023/03/07 09:22:54;;;;;;;;;57.67;43.33;;;;;9.11;67.17;98624.38;6318006;20;3625826;-59
2023/03/07 09:25:27;;;;;;;;;57.33;45.67;;;;;9.36;67.44;98628.81;6314303;20;2870108;-60
2023/03/07 09:27:57;;;;;;;;;55.00;40.33;;;;;9.30;65.48;98623.91;6317675;20;3617977;-59
2023/03/07 09:30:27;;;;;;;;;55.00;42.67;;;;;9.32;64.66;98625.50;6315408;20;3623387;-60
2023/03/07 09:32:57;;;;;;;;;52.00;41.67;;;;;8.71;65.86;98621.91;6314765;20;2868189;-60
2023/03/07 09:35:26;;;;;;;;;50.50;41.00;;;;;8.56;66.15;98611.31;6314487;20;2853357;-59
2023/03/07 09:37:55;;;;;;;;;49.00;40.00;;;;;8.91;63.88;98621.34;6284844;20;2861734;-59
2023/03/07 09:40:27;;;;;;;;;43.00;38.50;;;;;8.37;64.21;98621.56;6286372;20;2851321;-60
2023/03/07 09:43:22;;;;;;;;;45.00;38.33;;;;;8.70;63.04;98612.16;6281576;20;3618986;-59
2023/03/07 09:46:29;;;;;;;;;36.33;34.33;;;;;8.89;60.94;98614.38;6313881;20;3592011;-60
2023/03/07 09:49:39;;;;;;;;;40.67;35.33;;;;;8.86;59.33;98603.91;6281994;20;2874357;-59
2023/03/07 09:52:17;;;;;;;;;51.33;39.33;;;;;8.86;56.91;98607.44;6313110;20;2870174;-60
2023/03/07 09:55:05;;;;;;;;;128.33;97.33;;;;;8.85;59.53;98613.75;6316279;20;3706573;-60
2023/03/07 09:57:50;;;;;;;;;51.00;37.00;;;;;9.08;58.36;98613.91;6318136;20;3602350;-59
2023/03/07 10:00:41;;;;;;;;;108.67;93.33;;;;;9.55;57.27;98617.59;6281590;20;3688778;-59
2023/03/07 10:03:31;;;;;;;;;48.50;39.50;;;;;9.98;57.87;98614.34;6282063;20;2857651;-60
2023/03/07 10:06:23;;;;;;;;;44.00;39.00;;;;;9.60;57.53;98615.41;6285223;20;2873241;-59
2023/03/07 10:08:55;;;;;;;;;42.33;34.00;;;;;9.59;56.23;98621.75;6312703;20;3628417;-60
2023/03/07 10:12:17;;;;;;;;;37.33;34.33;;;;;9.62;56.15;98618.84;6314183;20;3582582;-59
2023/03/07 10:15:28;;;;;;;;;43.33;35.67;;;;;9.68;58.64;98618.38;6283719;20;2863795;-59
2023/03/07 10:18:30;;;;;;;;;38.33;31.33;;;;;10.05;56.05;98620.94;6317635;20;3612769;-59
2023/03/07 10:21:34;;;;;;;;;38.33;32.00;;;;;10.19;56.05;98611.81;6281413;20;3618058;-59
2023/03/07 10:24:29;;;;;;;;;51.67;40.00;;;;;10.08;54.04;98615.34;6315103;20;2867018;-59
2023/03/07 10:27:06;;;;;;;;;43.00;33.33;;;;;10.18;52.88;98610.97;6315846;20;2887901;-58
2023/03/07 10:29:47;;;;;;;;;48.33;39.00;;;;;10.81;52.02;98624.03;6319996;20;3599709;-59
2023/03/07 10:32:54;;;;;;;;;45.50;38.00;;;;;10.41;51.37;98616.44;6283788;20;2843962;-59
2023/03/07 10:35:42;;;;;;;;;33.50;30.50;;;;;11.19;49.92;98612.88;6281001;20;2856589;-59
2023/03/07 10:38:41;;;;;;;;;45.00;33.67;;;;;10.67;47.50;98619.75;6286052;20;3614858;-58
2023/03/07 10:41:17;;;;;;;;;32.67;28.00;;;;;10.47;48.77;98605.22;6279760;20;2856642;-58
2023/03/07 10:43:50;;;;;;;;;31.33;28.33;;;;;10.23;48.79;98613.31;6314080;20;3587764;-58
2023/03/07 10:46:27;;;;;;;;;34.00;29.33;;;;;10.51;47.58;98609.38;6280199;20;2856514;-58
2023/03/07 10:49:17;;;;;;;;;26.33;20.67;;;;;10.42;46.47;98613.63;6317737;20;3576298;-58
2023/03/07 10:52:32;;;;;;;;;38.00;33.67;;;;;10.25;48.26;98606.84;6310223;20;3607556;-57
2023/03/07 10:55:43;;;;;;;;;37.67;34.00;;;;;10.95;47.43;98602.28;6281182;20;3610710;-58
2023/03/07 10:58:25;;;;;;;;;27.50;20.50;;;;;10.38;47.61;98597.91;6312953;20;2489999;-59
2023/03/07 11:01:17;;;;;;;;;27.00;25.00;;;;;10.70;46.36;98590.81;6280212;20;2839947;-57
2023/03/07 11:04:05;;;;;;;;;25.33;24.33;;;;;10.22;44.42;98585.63;6280603;20;3585663;-59
2023/03/07 11:06:50;;;;;;;;;28.33;28.00;;;;;10.71;45.46;98589.84;6280800;20;2850304;-58
2023/03/07 11:09:34;;;;;;;;;34.00;24.00;;;;;11.19;43.30;98588.72;6314613;20;2852358;-56
2023/03/07 11:12:05;;;;;;;;;21.00;20.50;;;;;11.55;41.57;98587.47;6281445;20;2835740;-57
2023/03/07 11:15:10;;;;;;;;;12.50;11.00;;;;;10.73;41.67;98581.69;6288746;20;2795089;-56
2023/03/07 11:17:48;;;;;;;;;20.00;20.00;;;;;10.72;41.89;98583.50;6276527;20;2491945;-58
2023/03/07 11:20:49;;;;;;;;;16.00;15.00;;;;;11.06;41.01;98575.44;6283824;20;2803398;-56
2023/03/07 11:23:30;;;;;;;;;20.00;18.33;;;;;10.31;43.35;98568.84;6284798;20;2829464;-59
2023/03/07 11:26:21;;;;;;;;;30.00;25.50;;;;;10.63;42.07;98560.06;6314066;20;2852342;-59
2023/03/07 11:29:13;;;;;;;;;23.00;23.00;;;;;10.72;43.61;98556.66;6278640;20;2835155;-58
2023/03/07 11:32:19;;;;;;;;;36.67;27.00;;;;;10.61;43.58;98554.00;6280448;20;2869167;-56
2023/03/07 11:35:06;;;;;;;;;28.00;19.00;;;;;10.20;44.17;98554.53;6312323;20;3587776;-57